sensor_id;sensor_type;location;lat;lon;timestamp;P1;durP1;ratioP1;P2;durP2;ratioP2
18544;SDS011;9402;51.460;7.276;2022-12-29T00:00:07;4.70;;;0.90;;
18544;SDS011;9402;51.460;7.276;2022-12-29T00:02:11;2.70;;;0.97;;
18544;SDS011;9402;51.460;7.276;2022-12-29T00:04:14;1.93;;;0.90;;
18544;SDS011;9402;51.460;7.276;2022-12-29T00:06:16;1.10;;;0.93;;
18544;SDS011;9402;51.460;7.276;2022-12-29T00:08:19;1.43;;;0.90;;
18544;SDS011;9402;51.460;7.276;2022-12-29T00:10:40;1.10;;;0.83;;
18544;SDS011;9402;51.460;7.276;2022-12-29T00:12:42;1.20;;;0.93;;
18544;SDS011;9402;51.460;7.276;2022-12-29T00:15:03;1.33;;;1.00;;
18544;SDS011;9402;51.460;7.276;2022-12-29T00:17:23;1.67;;;1.00;;
18544;SDS011;9402;51.460;7.276;2022-12-29T00:19:26;1.10;;;0.90;;
18544;SDS011;9402;51.460;7.276;2022-12-29T00:21:46;1.87;;;0.80;;
18544;SDS011;9402;51.460;7.276;2022-12-29T00:24:06;1.40;;;0.87;;
18544;SDS011;9402;51.460;7.276;2022-12-29T00:26:29;1.40;;;1.13;;
18544;SDS011;9402;51.460;7.276;2022-12-29T00:29:03;1.20;;;1.00;;
18544;SDS011;9402;51.460;7.276;2022-12-29T00:31:23;1.00;;;0.90;;
18544;SDS011;9402;51.460;7.276;2022-12-29T00:33:43;1.80;;;1.00;;
18544;SDS011;9402;51.460;7.276;2022-12-29T00:36:04;1.10;;;0.90;;
18544;SDS011;9402;51.460;7.276;2022-12-29T00:38:08;1.00;;;0.90;;
18544;SDS011;9402;51.460;7.276;2022-12-29T00:40:29;1.00;;;0.90;;
18544;SDS011;9402;51.460;7.276;2022-12-29T00:42:51;2.70;;;1.00;;
18544;SDS011;9402;51.460;7.276;2022-12-29T00:45:10;1.83;;;0.83;;
18544;SDS011;9402;51.460;7.276;2022-12-29T00:47:13;1.20;;;0.87;;
18544;SDS011;9402;51.460;7.276;2022-12-29T00:49:15;2.40;;;0.90;;
18544;SDS011;9402;51.460;7.276;2022-12-29T00:51:32;1.30;;;0.83;;
18544;SDS011;9402;51.460;7.276;2022-12-29T00:53:34;1.20;;;0.90;;
18544;SDS011;9402;51.460;7.276;2022-12-29T00:55:37;2.00;;;0.90;;
18544;SDS011;9402;51.460;7.276;2022-12-29T00:57:40;0.90;;;0.80;;
18544;SDS011;9402;51.460;7.276;2022-12-29T00:59:44;1.47;;;0.80;;
18544;SDS011;9402;51.460;7.276;2022-12-29T01:01:46;1.10;;;0.77;;
18544;SDS011;9402;51.460;7.276;2022-12-29T01:03:49;1.33;;;0.90;;
18544;SDS011;9402;51.460;7.276;2022-12-29T01:05:51;1.23;;;0.80;;
18544;SDS011;9402;51.460;7.276;2022-12-29T01:07:53;1.33;;;0.90;;
18544;SDS011;9402;51.460;7.276;2022-12-29T01:09:56;0.90;;;0.80;;
18544;SDS011;9402;51.460;7.276;2022-12-29T01:12:12;1.30;;;0.70;;
18544;SDS011;9402;51.460;7.276;2022-12-29T01:14:14;1.40;;;0.80;;
18544;SDS011;9402;51.460;7.276;2022-12-29T01:16:18;1.00;;;0.87;;
18544;SDS011;9402;51.460;7.276;2022-12-29T01:18:21;1.57;;;0.90;;
18544;SDS011;9402;51.460;7.276;2022-12-29T01:20:24;0.93;;;0.70;;
18544;SDS011;9402;51.460;7.276;2022-12-29T01:22:27;2.57;;;0.93;;
18544;SDS011;9402;51.460;7.276;2022-12-29T01:24:29;0.90;;;0.70;;
18544;SDS011;9402;51.460;7.276;2022-12-29T01:26:32;1.57;;;0.80;;
18544;SDS011;9402;51.460;7.276;2022-12-29T01:28:34;1.83;;;0.80;;
18544;SDS011;9402;51.460;7.276;2022-12-29T01:30:38;1.00;;;0.70;;
18544;SDS011;9402;51.460;7.276;2022-12-29T01:32:42;0.93;;;0.60;;
18544;SDS011;9402;51.460;7.276;2022-12-29T01:34:44;1.20;;;0.70;;
18544;SDS011;9402;51.460;7.276;2022-12-29T01:36:47;2.00;;;0.80;;
18544;SDS011;9402;51.460;7.276;2022-12-29T01:38:49;1.20;;;0.63;;
18544;SDS011;9402;51.460;7.276;2022-12-29T01:40:51;1.20;;;0.80;;
18544;SDS011;9402;51.460;7.276;2022-12-29T01:42:54;1.20;;;0.63;;
18544;SDS011;9402;51.460;7.276;2022-12-29T01:44:56;1.97;;;0.70;;
18544;SDS011;9402;51.460;7.276;2022-12-29T01:46:59;1.07;;;0.80;;
18544;SDS011;9402;51.460;7.276;2022-12-29T01:49:04;0.90;;;0.60;;
18544;SDS011;9402;51.460;7.276;2022-12-29T01:51:09;1.13;;;0.70;;
18544;SDS011;9402;51.460;7.276;2022-12-29T01:53:13;1.10;;;0.63;;
18544;SDS011;9402;51.460;7.276;2022-12-29T01:55:18;1.10;;;0.90;;
18544;SDS011;9402;51.460;7.276;2022-12-29T01:57:21;0.90;;;0.60;;
18544;SDS011;9402;51.460;7.276;2022-12-29T01:59:26;0.93;;;0.60;;
18544;SDS011;9402;51.460;7.276;2022-12-29T02:01:30;0.97;;;0.60;;
18544;SDS011;9402;51.460;7.276;2022-12-29T02:03:33;1.10;;;0.70;;
18544;SDS011;9402;51.460;7.276;2022-12-29T02:05:37;0.90;;;0.63;;
18544;SDS011;9402;51.460;7.276;2022-12-29T02:07:42;1.93;;;0.60;;
18544;SDS011;9402;51.460;7.276;2022-12-29T02:09:45;0.90;;;0.60;;
18544;SDS011;9402;51.460;7.276;2022-12-29T02:11:48;1.27;;;0.70;;
18544;SDS011;9402;51.460;7.276;2022-12-29T02:13:50;0.90;;;0.70;;
18544;SDS011;9402;51.460;7.276;2022-12-29T02:15:55;1.10;;;0.77;;
18544;SDS011;9402;51.460;7.276;2022-12-29T02:18:10;2.03;;;0.70;;
18544;SDS011;9402;51.460;7.276;2022-12-29T02:23:16;0.97;;;0.70;;
18544;SDS011;9402;51.460;7.276;2022-12-29T02:25:56;3.90;;;0.80;;
18544;SDS011;9402;51.460;7.276;2022-12-29T02:28:41;1.73;;;0.60;;
18544;SDS011;9402;51.460;7.276;2022-12-29T02:31:06;1.10;;;0.67;;
18544;SDS011;9402;51.460;7.276;2022-12-29T02:33:17;1.30;;;0.60;;
18544;SDS011;9402;51.460;7.276;2022-12-29T02:35:25;1.00;;;0.60;;
18544;SDS011;9402;51.460;7.276;2022-12-29T02:37:35;1.00;;;0.63;;
18544;SDS011;9402;51.460;7.276;2022-12-29T02:39:43;1.83;;;0.70;;
18544;SDS011;9402;51.460;7.276;2022-12-29T02:41:53;1.40;;;0.80;;
18544;SDS011;9402;51.460;7.276;2022-12-29T02:44:02;0.90;;;0.60;;
18544;SDS011;9402;51.460;7.276;2022-12-29T02:46:12;1.10;;;0.60;;
18544;SDS011;9402;51.460;7.276;2022-12-29T02:48:23;1.50;;;0.80;;
18544;SDS011;9402;51.460;7.276;2022-12-29T02:50:28;3.37;;;0.90;;
18544;SDS011;9402;51.460;7.276;2022-12-29T02:52:36;1.00;;;0.60;;
18544;SDS011;9402;51.460;7.276;2022-12-29T02:54:41;2.17;;;0.70;;
18544;SDS011;9402;51.460;7.276;2022-12-29T02:56:43;1.43;;;0.60;;
18544;SDS011;9402;51.460;7.276;2022-12-29T02:58:45;1.17;;;0.80;;
18544;SDS011;9402;51.460;7.276;2022-12-29T03:00:52;2.97;;;0.90;;
18544;SDS011;9402;51.460;7.276;2022-12-29T03:03:11;3.23;;;0.80;;
18544;SDS011;9402;51.460;7.276;2022-12-29T03:05:21;1.10;;;0.80;;
18544;SDS011;9402;51.460;7.276;2022-12-29T03:07:32;1.10;;;0.70;;
18544;SDS011;9402;51.460;7.276;2022-12-29T03:09:42;1.40;;;0.70;;
18544;SDS011;9402;51.460;7.276;2022-12-29T03:11:50;1.30;;;0.70;;
18544;SDS011;9402;51.460;7.276;2022-12-29T03:14:12;1.93;;;0.73;;
18544;SDS011;9402;51.460;7.276;2022-12-29T03:16:35;1.27;;;0.70;;
18544;SDS011;9402;51.460;7.276;2022-12-29T03:18:44;1.10;;;0.70;;
18544;SDS011;9402;51.460;7.276;2022-12-29T03:20:51;1.20;;;0.70;;
18544;SDS011;9402;51.460;7.276;2022-12-29T03:22:58;4.03;;;1.10;;
18544;SDS011;9402;51.460;7.276;2022-12-29T03:25:03;1.73;;;0.73;;
18544;SDS011;9402;51.460;7.276;2022-12-29T03:27:06;3.43;;;0.80;;
18544;SDS011;9402;51.460;7.276;2022-12-29T03:29:10;3.10;;;0.90;;
18544;SDS011;9402;51.460;7.276;2022-12-29T03:31:13;2.17;;;0.80;;
18544;SDS011;9402;51.460;7.276;2022-12-29T03:33:17;2.90;;;0.90;;
18544;SDS011;9402;51.460;7.276;2022-12-29T03:35:25;1.40;;;0.90;;
18544;SDS011;9402;51.460;7.276;2022-12-29T03:37:30;1.77;;;0.90;;
18544;SDS011;9402;51.460;7.276;2022-12-29T03:39:35;1.10;;;0.80;;
18544;SDS011;9402;51.460;7.276;2022-12-29T03:41:39;3.10;;;1.03;;
18544;SDS011;9402;51.460;7.276;2022-12-29T03:43:42;2.43;;;0.83;;
18544;SDS011;9402;51.460;7.276;2022-12-29T03:45:45;4.40;;;1.00;;
18544;SDS011;9402;51.460;7.276;2022-12-29T03:47:47;2.40;;;1.00;;
18544;SDS011;9402;51.460;7.276;2022-12-29T03:49:50;2.13;;;0.93;;
18544;SDS011;9402;51.460;7.276;2022-12-29T03:51:53;1.67;;;0.80;;
18544;SDS011;9402;51.460;7.276;2022-12-29T03:53:56;4.10;;;0.83;;
18544;SDS011;9402;51.460;7.276;2022-12-29T03:55:58;2.40;;;0.90;;
18544;SDS011;9402;51.460;7.276;2022-12-29T03:58:02;5.33;;;0.80;;
18544;SDS011;9402;51.460;7.276;2022-12-29T04:00:05;2.63;;;1.00;;
18544;SDS011;9402;51.460;7.276;2022-12-29T04:02:08;1.30;;;1.00;;
18544;SDS011;9402;51.460;7.276;2022-12-29T04:04:10;2.33;;;0.83;;
18544;SDS011;9402;51.460;7.276;2022-12-29T04:06:13;2.93;;;0.93;;
18544;SDS011;9402;51.460;7.276;2022-12-29T04:08:16;2.90;;;0.90;;
18544;SDS011;9402;51.460;7.276;2022-12-29T04:10:19;1.20;;;0.73;;
18544;SDS011;9402;51.460;7.276;2022-12-29T04:12:21;1.70;;;0.80;;
18544;SDS011;9402;51.460;7.276;2022-12-29T04:14:23;1.20;;;0.80;;
18544;SDS011;9402;51.460;7.276;2022-12-29T04:16:26;1.33;;;0.80;;
18544;SDS011;9402;51.460;7.276;2022-12-29T04:18:28;1.10;;;0.70;;
18544;SDS011;9402;51.460;7.276;2022-12-29T04:20:30;1.60;;;0.80;;
18544;SDS011;9402;51.460;7.276;2022-12-29T04:22:56;1.30;;;0.70;;
18544;SDS011;9402;51.460;7.276;2022-12-29T04:25:01;2.80;;;0.80;;
18544;SDS011;9402;51.460;7.276;2022-12-29T04:27:03;2.17;;;0.70;;
18544;SDS011;9402;51.460;7.276;2022-12-29T04:29:06;2.47;;;0.90;;
18544;SDS011;9402;51.460;7.276;2022-12-29T04:31:08;1.20;;;0.63;;
18544;SDS011;9402;51.460;7.276;2022-12-29T04:33:11;1.53;;;0.70;;
18544;SDS011;9402;51.460;7.276;2022-12-29T04:35:13;1.00;;;0.70;;
18544;SDS011;9402;51.460;7.276;2022-12-29T04:37:16;1.83;;;0.70;;
18544;SDS011;9402;51.460;7.276;2022-12-29T04:39:18;1.10;;;0.70;;
18544;SDS011;9402;51.460;7.276;2022-12-29T04:41:22;1.00;;;0.70;;
18544;SDS011;9402;51.460;7.276;2022-12-29T04:43:24;2.07;;;0.90;;
18544;SDS011;9402;51.460;7.276;2022-12-29T04:45:27;1.10;;;0.80;;
18544;SDS011;9402;51.460;7.276;2022-12-29T04:47:29;1.20;;;0.80;;
18544;SDS011;9402;51.460;7.276;2022-12-29T04:49:31;1.10;;;0.60;;
18544;SDS011;9402;51.460;7.276;2022-12-29T04:51:34;1.20;;;0.70;;
18544;SDS011;9402;51.460;7.276;2022-12-29T04:53:36;2.83;;;1.00;;
18544;SDS011;9402;51.460;7.276;2022-12-29T04:55:39;1.00;;;0.60;;
18544;SDS011;9402;51.460;7.276;2022-12-29T04:57:42;1.10;;;0.80;;
18544;SDS011;9402;51.460;7.276;2022-12-29T04:59:45;3.13;;;0.70;;
18544;SDS011;9402;51.460;7.276;2022-12-29T05:01:47;1.93;;;0.77;;
18544;SDS011;9402;51.460;7.276;2022-12-29T05:03:50;1.10;;;0.70;;
18544;SDS011;9402;51.460;7.276;2022-12-29T05:05:53;1.10;;;0.70;;
18544;SDS011;9402;51.460;7.276;2022-12-29T05:07:55;1.10;;;0.63;;
18544;SDS011;9402;51.460;7.276;2022-12-29T05:09:58;1.30;;;0.70;;
18544;SDS011;9402;51.460;7.276;2022-12-29T05:12:00;2.27;;;1.00;;
18544;SDS011;9402;51.460;7.276;2022-12-29T05:14:04;1.87;;;0.73;;
18544;SDS011;9402;51.460;7.276;2022-12-29T05:16:06;2.57;;;1.03;;
18544;SDS011;9402;51.460;7.276;2022-12-29T05:18:09;1.97;;;0.67;;
18544;SDS011;9402;51.460;7.276;2022-12-29T05:20:11;1.60;;;0.80;;
18544;SDS011;9402;51.460;7.276;2022-12-29T05:22:14;3.00;;;1.00;;
18544;SDS011;9402;51.460;7.276;2022-12-29T05:24:16;5.53;;;0.90;;
18544;SDS011;9402;51.460;7.276;2022-12-29T05:26:18;2.40;;;0.80;;
18544;SDS011;9402;51.460;7.276;2022-12-29T05:28:21;12.77;;;11.80;;
18544;SDS011;9402;51.460;7.276;2022-12-29T05:30:24;1.40;;;0.80;;
18544;SDS011;9402;51.460;7.276;2022-12-29T05:32:27;4.17;;;0.80;;
18544;SDS011;9402;51.460;7.276;2022-12-29T05:34:29;3.87;;;0.90;;
18544;SDS011;9402;51.460;7.276;2022-12-29T05:36:31;8.10;;;1.00;;
18544;SDS011;9402;51.460;7.276;2022-12-29T05:38:34;2.13;;;0.97;;
18544;SDS011;9402;51.460;7.276;2022-12-29T05:40:36;3.30;;;0.80;;
18544;SDS011;9402;51.460;7.276;2022-12-29T05:42:39;2.73;;;0.97;;
18544;SDS011;9402;51.460;7.276;2022-12-29T05:44:41;5.60;;;1.00;;
18544;SDS011;9402;51.460;7.276;2022-12-29T05:46:45;4.23;;;1.13;;
18544;SDS011;9402;51.460;7.276;2022-12-29T05:48:47;1.93;;;0.80;;
18544;SDS011;9402;51.460;7.276;2022-12-29T05:50:49;2.80;;;0.80;;
18544;SDS011;9402;51.460;7.276;2022-12-29T05:52:52;2.80;;;0.70;;
18544;SDS011;9402;51.460;7.276;2022-12-29T05:54:54;1.87;;;0.90;;
18544;SDS011;9402;51.460;7.276;2022-12-29T05:56:57;2.77;;;0.97;;
18544;SDS011;9402;51.460;7.276;2022-12-29T05:58:59;3.00;;;0.77;;
18544;SDS011;9402;51.460;7.276;2022-12-29T06:01:01;3.07;;;0.97;;
18544;SDS011;9402;51.460;7.276;2022-12-29T06:03:05;1.60;;;0.80;;
18544;SDS011;9402;51.460;7.276;2022-12-29T06:05:08;3.00;;;1.10;;
18544;SDS011;9402;51.460;7.276;2022-12-29T06:07:10;2.37;;;1.00;;
18544;SDS011;9402;51.460;7.276;2022-12-29T06:09:12;2.17;;;0.83;;
18544;SDS011;9402;51.460;7.276;2022-12-29T06:11:15;1.53;;;0.77;;
18544;SDS011;9402;51.460;7.276;2022-12-29T06:13:17;2.17;;;1.10;;
18544;SDS011;9402;51.460;7.276;2022-12-29T06:15:20;3.57;;;1.10;;
18544;SDS011;9402;51.460;7.276;2022-12-29T06:17:22;1.33;;;0.87;;
18544;SDS011;9402;51.460;7.276;2022-12-29T06:19:26;1.60;;;0.70;;
18544;SDS011;9402;51.460;7.276;2022-12-29T06:21:28;3.77;;;0.90;;
18544;SDS011;9402;51.460;7.276;2022-12-29T06:23:30;2.23;;;0.83;;
18544;SDS011;9402;51.460;7.276;2022-12-29T06:25:33;2.90;;;0.73;;
18544;SDS011;9402;51.460;7.276;2022-12-29T06:27:35;3.30;;;1.17;;
18544;SDS011;9402;51.460;7.276;2022-12-29T06:29:38;3.23;;;1.10;;
18544;SDS011;9402;51.460;7.276;2022-12-29T06:31:40;2.87;;;1.10;;
18544;SDS011;9402;51.460;7.276;2022-12-29T06:33:43;3.40;;;1.00;;
18544;SDS011;9402;51.460;7.276;2022-12-29T06:35:47;4.40;;;1.20;;
18544;SDS011;9402;51.460;7.276;2022-12-29T06:37:49;3.77;;;0.83;;
18544;SDS011;9402;51.460;7.276;2022-12-29T06:39:52;1.90;;;1.03;;
18544;SDS011;9402;51.460;7.276;2022-12-29T06:41:54;7.07;;;1.10;;
18544;SDS011;9402;51.460;7.276;2022-12-29T06:43:56;2.00;;;0.90;;
18544;SDS011;9402;51.460;7.276;2022-12-29T06:45:59;3.03;;;1.10;;
18544;SDS011;9402;51.460;7.276;2022-12-29T06:48:01;3.47;;;0.90;;
18544;SDS011;9402;51.460;7.276;2022-12-29T06:50:04;1.93;;;0.80;;
18544;SDS011;9402;51.460;7.276;2022-12-29T06:52:08;4.33;;;1.10;;
18544;SDS011;9402;51.460;7.276;2022-12-29T06:54:11;2.77;;;0.87;;
18544;SDS011;9402;51.460;7.276;2022-12-29T06:56:13;3.10;;;0.90;;
18544;SDS011;9402;51.460;7.276;2022-12-29T06:58:16;2.37;;;1.10;;
18544;SDS011;9402;51.460;7.276;2022-12-29T07:00:18;2.33;;;0.80;;
18544;SDS011;9402;51.460;7.276;2022-12-29T07:02:21;5.93;;;1.33;;
18544;SDS011;9402;51.460;7.276;2022-12-29T07:04:25;1.83;;;0.83;;
18544;SDS011;9402;51.460;7.276;2022-12-29T07:06:27;2.97;;;1.13;;
18544;SDS011;9402;51.460;7.276;2022-12-29T07:08:31;2.43;;;0.83;;
18544;SDS011;9402;51.460;7.276;2022-12-29T07:10:33;4.47;;;0.90;;
18544;SDS011;9402;51.460;7.276;2022-12-29T07:12:36;2.87;;;1.80;;
18544;SDS011;9402;51.460;7.276;2022-12-29T07:14:38;4.70;;;1.13;;
18544;SDS011;9402;51.460;7.276;2022-12-29T07:16:40;3.83;;;1.00;;
18544;SDS011;9402;51.460;7.276;2022-12-29T07:18:42;7.47;;;1.00;;
18544;SDS011;9402;51.460;7.276;2022-12-29T07:20:45;2.90;;;1.00;;
18544;SDS011;9402;51.460;7.276;2022-12-29T07:22:47;3.30;;;1.00;;
18544;SDS011;9402;51.460;7.276;2022-12-29T07:24:51;3.27;;;1.10;;
18544;SDS011;9402;51.460;7.276;2022-12-29T07:26:53;2.10;;;1.00;;
18544;SDS011;9402;51.460;7.276;2022-12-29T07:28:56;2.47;;;0.93;;
18544;SDS011;9402;51.460;7.276;2022-12-29T07:30:58;6.87;;;1.73;;
18544;SDS011;9402;51.460;7.276;2022-12-29T07:33:00;2.63;;;1.07;;
18544;SDS011;9402;51.460;7.276;2022-12-29T07:35:03;6.27;;;1.30;;
18544;SDS011;9402;51.460;7.276;2022-12-29T07:37:06;6.37;;;1.43;;
18544;SDS011;9402;51.460;7.276;2022-12-29T07:39:08;4.80;;;1.10;;
18544;SDS011;9402;51.460;7.276;2022-12-29T07:41:12;1.40;;;0.70;;
18544;SDS011;9402;51.460;7.276;2022-12-29T07:43:15;4.57;;;1.20;;
18544;SDS011;9402;51.460;7.276;2022-12-29T07:45:17;3.63;;;1.20;;
18544;SDS011;9402;51.460;7.276;2022-12-29T07:47:20;3.30;;;1.40;;
18544;SDS011;9402;51.460;7.276;2022-12-29T07:49:22;5.17;;;1.20;;
18544;SDS011;9402;51.460;7.276;2022-12-29T07:51:25;3.93;;;1.00;;
18544;SDS011;9402;51.460;7.276;2022-12-29T07:53:27;2.67;;;1.20;;
18544;SDS011;9402;51.460;7.276;2022-12-29T07:55:29;8.90;;;1.50;;
18544;SDS011;9402;51.460;7.276;2022-12-29T07:57:33;2.97;;;1.10;;
18544;SDS011;9402;51.460;7.276;2022-12-29T07:59:35;4.43;;;1.10;;
18544;SDS011;9402;51.460;7.276;2022-12-29T08:01:38;9.60;;;1.03;;
18544;SDS011;9402;51.460;7.276;2022-12-29T08:03:40;3.23;;;1.00;;
18544;SDS011;9402;51.460;7.276;2022-12-29T08:05:42;8.03;;;1.27;;
18544;SDS011;9402;51.460;7.276;2022-12-29T08:07:45;5.53;;;1.10;;
18544;SDS011;9402;51.460;7.276;2022-12-29T08:09:48;4.17;;;1.13;;
18544;SDS011;9402;51.460;7.276;2022-12-29T08:11:50;3.30;;;1.00;;
18544;SDS011;9402;51.460;7.276;2022-12-29T08:13:54;4.80;;;1.10;;
18544;SDS011;9402;51.460;7.276;2022-12-29T08:15:57;3.97;;;1.00;;
18544;SDS011;9402;51.460;7.276;2022-12-29T08:17:59;2.87;;;1.00;;
18544;SDS011;9402;51.460;7.276;2022-12-29T08:20:02;10.63;;;1.37;;
18544;SDS011;9402;51.460;7.276;2022-12-29T08:22:04;4.57;;;1.20;;
18544;SDS011;9402;51.460;7.276;2022-12-29T08:24:08;6.83;;;1.10;;
18544;SDS011;9402;51.460;7.276;2022-12-29T08:26:10;4.50;;;1.50;;
18544;SDS011;9402;51.460;7.276;2022-12-29T08:28:12;7.50;;;1.20;;
18544;SDS011;9402;51.460;7.276;2022-12-29T08:30:16;3.20;;;1.10;;
18544;SDS011;9402;51.460;7.276;2022-12-29T08:32:19;6.27;;;1.10;;
18544;SDS011;9402;51.460;7.276;2022-12-29T08:34:21;5.97;;;1.30;;
18544;SDS011;9402;51.460;7.276;2022-12-29T08:36:23;6.73;;;1.40;;
18544;SDS011;9402;51.460;7.276;2022-12-29T08:38:26;6.97;;;1.30;;
18544;SDS011;9402;51.460;7.276;2022-12-29T08:40:29;11.93;;;1.50;;
18544;SDS011;9402;51.460;7.276;2022-12-29T08:42:32;6.73;;;1.53;;
18544;SDS011;9402;51.460;7.276;2022-12-29T08:44:34;5.53;;;1.30;;
18544;SDS011;9402;51.460;7.276;2022-12-29T08:46:38;8.10;;;1.30;;
18544;SDS011;9402;51.460;7.276;2022-12-29T08:48:40;5.67;;;1.00;;
18544;SDS011;9402;51.460;7.276;2022-12-29T08:50:42;3.83;;;1.20;;
18544;SDS011;9402;51.460;7.276;2022-12-29T08:52:45;5.43;;;1.90;;
18544;SDS011;9402;51.460;7.276;2022-12-29T08:54:47;7.67;;;1.50;;
18544;SDS011;9402;51.460;7.276;2022-12-29T08:56:50;7.37;;;1.40;;
18544;SDS011;9402;51.460;7.276;2022-12-29T08:58:53;3.23;;;1.13;;
18544;SDS011;9402;51.460;7.276;2022-12-29T09:00:56;5.93;;;1.20;;
18544;SDS011;9402;51.460;7.276;2022-12-29T09:03:00;7.83;;;1.20;;
18544;SDS011;9402;51.460;7.276;2022-12-29T09:05:03;3.70;;;1.20;;
18544;SDS011;9402;51.460;7.276;2022-12-29T09:07:06;6.03;;;1.40;;
18544;SDS011;9402;51.460;7.276;2022-12-29T09:09:08;5.73;;;1.07;;
18544;SDS011;9402;51.460;7.276;2022-12-29T09:11:12;8.80;;;1.70;;
18544;SDS011;9402;51.460;7.276;2022-12-29T09:13:15;6.70;;;1.50;;
18544;SDS011;9402;51.460;7.276;2022-12-29T09:15:18;7.60;;;1.30;;
18544;SDS011;9402;51.460;7.276;2022-12-29T09:17:20;6.50;;;1.43;;
18544;SDS011;9402;51.460;7.276;2022-12-29T09:19:42;6.30;;;1.47;;
18544;SDS011;9402;51.460;7.276;2022-12-29T09:21:44;5.43;;;1.00;;
18544;SDS011;9402;51.460;7.276;2022-12-29T09:23:47;7.03;;;1.50;;
18544;SDS011;9402;51.460;7.276;2022-12-29T09:25:49;4.87;;;1.33;;
18544;SDS011;9402;51.460;7.276;2022-12-29T09:27:52;3.77;;;1.50;;
18544;SDS011;9402;51.460;7.276;2022-12-29T09:29:54;10.87;;;1.60;;
18544;SDS011;9402;51.460;7.276;2022-12-29T09:31:56;11.03;;;1.30;;
18544;SDS011;9402;51.460;7.276;2022-12-29T09:33:59;4.43;;;1.30;;
18544;SDS011;9402;51.460;7.276;2022-12-29T09:36:03;9.10;;;1.47;;
18544;SDS011;9402;51.460;7.276;2022-12-29T09:38:05;7.83;;;1.40;;
18544;SDS011;9402;51.460;7.276;2022-12-29T09:40:10;6.57;;;1.40;;
18544;SDS011;9402;51.460;7.276;2022-12-29T09:42:23;4.63;;;1.40;;
18544;SDS011;9402;51.460;7.276;2022-12-29T09:44:31;5.33;;;1.37;;
18544;SDS011;9402;51.460;7.276;2022-12-29T09:46:44;3.80;;;1.80;;
18544;SDS011;9402;51.460;7.276;2022-12-29T09:48:50;10.10;;;1.40;;
18544;SDS011;9402;51.460;7.276;2022-12-29T09:50:56;6.00;;;1.60;;
18544;SDS011;9402;51.460;7.276;2022-12-29T09:53:02;4.33;;;1.30;;
18544;SDS011;9402;51.460;7.276;2022-12-29T09:55:10;4.43;;;1.30;;
18544;SDS011;9402;51.460;7.276;2022-12-29T09:57:15;6.60;;;1.70;;
18544;SDS011;9402;51.460;7.276;2022-12-29T09:59:20;4.10;;;1.37;;
18544;SDS011;9402;51.460;7.276;2022-12-29T10:01:27;9.00;;;1.30;;
18544;SDS011;9402;51.460;7.276;2022-12-29T10:03:33;5.73;;;1.20;;
18544;SDS011;9402;51.460;7.276;2022-12-29T10:05:44;10.97;;;1.40;;
18544;SDS011;9402;51.460;7.276;2022-12-29T10:07:50;5.83;;;1.37;;
18544;SDS011;9402;51.460;7.276;2022-12-29T10:09:59;5.13;;;1.20;;
18544;SDS011;9402;51.460;7.276;2022-12-29T10:12:15;10.17;;;1.67;;
18544;SDS011;9402;51.460;7.276;2022-12-29T10:14:27;9.50;;;1.33;;
18544;SDS011;9402;51.460;7.276;2022-12-29T10:16:37;8.17;;;1.43;;
18544;SDS011;9402;51.460;7.276;2022-12-29T10:18:50;5.73;;;1.50;;
18544;SDS011;9402;51.460;7.276;2022-12-29T10:21:07;8.60;;;1.20;;
18544;SDS011;9402;51.460;7.276;2022-12-29T10:23:18;7.83;;;1.30;;
18544;SDS011;9402;51.460;7.276;2022-12-29T10:25:29;9.00;;;1.40;;
18544;SDS011;9402;51.460;7.276;2022-12-29T10:27:33;4.00;;;1.23;;
18544;SDS011;9402;51.460;7.276;2022-12-29T10:29:37;7.90;;;1.40;;
18544;SDS011;9402;51.460;7.276;2022-12-29T10:31:43;6.10;;;1.70;;
18544;SDS011;9402;51.460;7.276;2022-12-29T10:33:48;8.60;;;1.43;;
18544;SDS011;9402;51.460;7.276;2022-12-29T10:35:52;5.93;;;1.30;;
18544;SDS011;9402;51.460;7.276;2022-12-29T10:37:56;9.73;;;1.90;;
18544;SDS011;9402;51.460;7.276;2022-12-29T10:40:02;7.17;;;1.53;;
18544;SDS011;9402;51.460;7.276;2022-12-29T10:42:15;5.90;;;1.37;;
18544;SDS011;9402;51.460;7.276;2022-12-29T10:44:22;7.53;;;1.40;;
18544;SDS011;9402;51.460;7.276;2022-12-29T10:46:29;7.83;;;1.80;;
18544;SDS011;9402;51.460;7.276;2022-12-29T10:48:36;6.10;;;1.37;;
18544;SDS011;9402;51.460;7.276;2022-12-29T10:50:38;9.50;;;1.63;;
18544;SDS011;9402;51.460;7.276;2022-12-29T10:52:42;10.27;;;2.10;;
18544;SDS011;9402;51.460;7.276;2022-12-29T10:54:47;9.23;;;1.67;;
18544;SDS011;9402;51.460;7.276;2022-12-29T10:56:53;5.57;;;1.20;;
18544;SDS011;9402;51.460;7.276;2022-12-29T10:59:00;7.57;;;1.80;;
18544;SDS011;9402;51.460;7.276;2022-12-29T11:01:07;8.10;;;1.40;;
18544;SDS011;9402;51.460;7.276;2022-12-29T11:03:13;12.90;;;1.70;;
18544;SDS011;9402;51.460;7.276;2022-12-29T11:05:29;4.70;;;1.17;;
18544;SDS011;9402;51.460;7.276;2022-12-29T11:07:36;6.10;;;1.20;;
18544;SDS011;9402;51.460;7.276;2022-12-29T11:09:39;7.60;;;1.57;;
18544;SDS011;9402;51.460;7.276;2022-12-29T11:11:42;13.40;;;1.53;;
18544;SDS011;9402;51.460;7.276;2022-12-29T11:13:47;6.77;;;1.30;;
18544;SDS011;9402;51.460;7.276;2022-12-29T11:15:52;11.53;;;1.70;;
18544;SDS011;9402;51.460;7.276;2022-12-29T11:17:56;13.07;;;1.93;;
18544;SDS011;9402;51.460;7.276;2022-12-29T11:19:59;5.97;;;1.83;;
18544;SDS011;9402;51.460;7.276;2022-12-29T11:22:12;8.30;;;1.23;;
18544;SDS011;9402;51.460;7.276;2022-12-29T11:24:21;10.07;;;1.50;;
18544;SDS011;9402;51.460;7.276;2022-12-29T11:26:25;9.80;;;2.13;;
18544;SDS011;9402;51.460;7.276;2022-12-29T11:28:28;6.87;;;1.70;;
18544;SDS011;9402;51.460;7.276;2022-12-29T11:30:32;16.03;;;1.83;;
18544;SDS011;9402;51.460;7.276;2022-12-29T11:32:35;5.97;;;1.90;;
18544;SDS011;9402;51.460;7.276;2022-12-29T11:34:38;11.23;;;1.53;;
18544;SDS011;9402;51.460;7.276;2022-12-29T11:36:40;11.97;;;2.80;;
18544;SDS011;9402;51.460;7.276;2022-12-29T11:38:46;8.10;;;1.67;;
18544;SDS011;9402;51.460;7.276;2022-12-29T11:40:49;12.27;;;1.73;;
18544;SDS011;9402;51.460;7.276;2022-12-29T11:42:52;10.17;;;2.33;;
18544;SDS011;9402;51.460;7.276;2022-12-29T11:44:56;9.87;;;2.13;;
18544;SDS011;9402;51.460;7.276;2022-12-29T11:46:58;16.43;;;1.73;;
18544;SDS011;9402;51.460;7.276;2022-12-29T11:49:02;10.20;;;2.03;;
18544;SDS011;9402;51.460;7.276;2022-12-29T11:51:04;6.30;;;1.43;;
18544;SDS011;9402;51.460;7.276;2022-12-29T11:53:14;9.60;;;1.70;;
18544;SDS011;9402;51.460;7.276;2022-12-29T11:55:18;10.60;;;1.70;;
18544;SDS011;9402;51.460;7.276;2022-12-29T11:57:23;13.47;;;2.10;;
18544;SDS011;9402;51.460;7.276;2022-12-29T11:59:42;8.27;;;1.90;;
18544;SDS011;9402;51.460;7.276;2022-12-29T12:01:44;16.80;;;2.10;;
18544;SDS011;9402;51.460;7.276;2022-12-29T12:03:47;7.73;;;1.40;;
18544;SDS011;9402;51.460;7.276;2022-12-29T12:05:54;11.17;;;1.90;;
18544;SDS011;9402;51.460;7.276;2022-12-29T12:08:01;6.00;;;1.40;;
18544;SDS011;9402;51.460;7.276;2022-12-29T12:10:10;9.30;;;1.50;;
18544;SDS011;9402;51.460;7.276;2022-12-29T12:12:21;6.27;;;1.40;;
18544;SDS011;9402;51.460;7.276;2022-12-29T12:14:27;8.00;;;1.60;;
18544;SDS011;9402;51.460;7.276;2022-12-29T12:16:33;12.20;;;1.67;;
18544;SDS011;9402;51.460;7.276;2022-12-29T12:18:39;8.80;;;1.23;;
18544;SDS011;9402;51.460;7.276;2022-12-29T12:20:44;13.73;;;1.73;;
18544;SDS011;9402;51.460;7.276;2022-12-29T12:22:53;5.50;;;1.67;;
18544;SDS011;9402;51.460;7.276;2022-12-29T12:25:01;8.43;;;1.93;;
18544;SDS011;9402;51.460;7.276;2022-12-29T12:27:09;7.30;;;1.57;;
18544;SDS011;9402;51.460;7.276;2022-12-29T12:29:15;10.20;;;1.67;;
18544;SDS011;9402;51.460;7.276;2022-12-29T12:31:23;11.50;;;1.50;;
18544;SDS011;9402;51.460;7.276;2022-12-29T12:33:30;9.93;;;1.43;;
18544;SDS011;9402;51.460;7.276;2022-12-29T12:35:36;15.13;;;1.60;;
18544;SDS011;9402;51.460;7.276;2022-12-29T12:37:49;7.20;;;1.37;;
18544;SDS011;9402;51.460;7.276;2022-12-29T12:42:34;10.30;;;1.67;;
18544;SDS011;9402;51.460;7.276;2022-12-29T12:44:45;6.27;;;1.67;;
18544;SDS011;9402;51.460;7.276;2022-12-29T12:46:58;12.17;;;2.47;;
18544;SDS011;9402;51.460;7.276;2022-12-29T12:49:24;6.83;;;1.70;;
18544;SDS011;9402;51.460;7.276;2022-12-29T12:51:47;9.53;;;1.47;;